Home > Products > Valid Products > TAF

000
FTUS44 KFWD 271700
TAFACT
TAF
KACT 271725Z 2718/2818 05006KT P6SM SKC
     FM272200 13005KT P6SM SKC
     FM281500 17015KT P6SM FEW030=



000
FTUS44 KFWD 271700
TAFDFW
TAF
KDFW 271725Z 2718/2824 08008KT P6SM SKC
     FM272100 15007KT P6SM SKC
     FM281500 18016KT P6SM FEW030=



000
FTUS44 KFWD 271700
TAFFTW
TAF
KFTW 271725Z 2718/2818 07007KT P6SM SKC
     FM272100 15005KT P6SM SKC
     FM281500 18015KT P6SM FEW030=



000
FTUS44 KFWD 271400 AAA
TAFACT
TAF AMD
KACT 271455Z 2715/2812 02006KT P6SM SKC
     FM272200 13005KT P6SM SKC=



000
FTUS44 KFWD 271400 AAA
TAFDFW
TAF AMD
KDFW 271455Z 2715/2818 05008KT P6SM SKC
     FM272100 15005KT P6SM SKC
     FM281400 18014KT P6SM FEW030=



000
FTUS44 KFWD 271400 AAA
TAFFTW
TAF AMD
KFTW 271455Z 2715/2812 03007KT P6SM SKC
     FM272100 15005KT P6SM SKC=



000
FTUS44 KFWD 271100
TAFFTW
TAF
KFTW 271122Z 2712/2812 01008KT P6SM SKC
     FM271600 07006KT P6SM SKC
     FM272100 14005KT P6SM SKC
     FM280200 17007KT P6SM SKC=



000
FTUS44 KFWD 271100
TAFACT
TAF
KACT 271122Z 2712/2812 36006KT P6SM SKC
     FM271800 05006KT P6SM SKC
     FM272200 13005KT P6SM SKC
     FM280200 16006KT P6SM SKC=



000
FTUS44 KFWD 271100
TAFDFW
TAF
KDFW 271122Z 2712/2818 01008KT P6SM SKC
     FM271600 07006KT P6SM SKC
     FM272100 14005KT P6SM SKC
     FM280200 17007KT P6SM SKC
     FM281400 18014KT P6SM FEW030=



000
FTUS44 KFWD 270900 AAA
TAFFTW
TAF AMD
KFTW 270902Z 2709/2806 36008KT P6SM SKC
     FM271600 07005KT P6SM SKC
     FM272100 14008KT P6SM SKC=



000
FTUS44 KFWD 270900 AAA
TAFDFW
TAF AMD
KDFW 270902Z 2709/2812 36008KT P6SM SKC
     FM271600 07005KT P6SM SKC
     FM272100 14008KT P6SM SKC=



000
FTUS44 KFWD 270900 AAA
TAFACT
TAF AMD
KACT 270902Z 2709/2806 36006KT P6SM SKC
     FM271800 05007KT P6SM SKC
     FM272200 13006KT P6SM SKC=



000
FTUS44 KFWD 270500
TAFACT
TAF
KACT 270522Z 2706/2806 01006KT P6SM SKC
     FM272200 12006KT P6SM SKC=



000
FTUS44 KFWD 270500
TAFDFW
TAF
KDFW 270522Z 2706/2812 36008KT P6SM SKC
     FM271600 07005KT P6SM SKC
     FM272100 14008KT P6SM SKC=



000
FTUS44 KFWD 270500
TAFFTW
TAF
KFTW 270522Z 2706/2806 36008KT P6SM SKC
     FM271600 07005KT P6SM SKC
     FM272100 14008KT P6SM SKC=



000
FTUS44 KFWD 270200 AAA
TAFFTW
TAF AMD
KFTW 270258Z 2703/2724 36008KT P6SM SKC
     FM271600 07005KT P6SM SKC
     FM272100 14008KT P6SM SKC=



000
FTUS44 KFWD 270200 AAA
TAFACT
TAF AMD
KACT 270258Z 2703/2724 35008KT P6SM SKC
     FM271500 03006KT P6SM SKC=



000
FTUS44 KFWD 270200 AAA
TAFDFW
TAF AMD
KDFW 270258Z 2703/2806 36008KT P6SM SKC
     FM271600 07005KT P6SM SKC
     FM272100 14008KT P6SM SKC=



000
FTUS44 KFWD 262300 RRA
TAFDFW
TAF
KDFW 262341Z 2700/2806 36008KT P6SM SCT300
     FM271600 07005KT P6SM FEW300
     FM272100 14008KT P6SM SCT300=



000
FTUS44 KFWD 262300 RRA
TAFFTW
TAF
KFTW 262341Z 2700/2724 36008KT P6SM SCT250
     FM271600 07005KT P6SM FEW250=



000
FTUS44 KFWD 262300 RRA
TAFACT
TAF
KACT 262341Z 2700/2724 35008KT P6SM FEW250
     FM271500 03006KT P6SM SCT250=



000
FTUS44 KFWD 262100 AAA
TAFACT
TAF AMD
KACT 262110Z 2621/2718 35008KT P6SM FEW250
     FM271500 03006KT P6SM SCT250=



000
FTUS44 KFWD 262100 AAA
TAFFTW
TAF AMD
KFTW 262110Z 2621/2718 36008KT P6SM SCT250
     FM271600 07005KT P6SM FEW250=



000
FTUS44 KFWD 262100 AAA
TAFDFW
TAF AMD
KDFW 262110Z 2621/2724 36008KT P6SM SCT300
     FM271600 07005KT P6SM FEW300
     FM272100 14008KT P6SM SCT300=



000
FTUS44 KFWD 261700
TAFACT
TAF
KACT 261720Z 2618/2718 30010KT P6SM SKC
     FM270000 35008KT P6SM SCT250
     FM271500 03006KT P6SM SCT250=



000
FTUS44 KFWD 261700
TAFDFW
TAF
KDFW 261720Z 2618/2724 34013KT P6SM SCT300
     FM270100 36007KT P6SM SCT300
     FM271600 07005KT P6SM FEW300
     FM272100 14008KT P6SM SCT300=



000
FTUS44 KFWD 261700
TAFFTW
TAF
KFTW 261720Z 2618/2718 34013KT P6SM SCT250
     FM270100 36007KT P6SM SCT250
     FM271600 07005KT P6SM FEW250=



000
FTUS44 KFWD 261500 AAA
TAFFTW
TAF AMD
KFTW 261528Z 2615/2712 29011KT P6SM SKC
     FM261800 34012KT P6SM SCT250
     FM270100 36006KT P6SM FEW250=



000
FTUS44 KFWD 261500 AAA
TAFACT
TAF AMD
KACT 261528Z 2615/2712 27008KT P6SM SKC
     FM261900 30011KT P6SM FEW250
     FM262000 34011KT P6SM FEW250=



000
FTUS44 KFWD 261500 AAA
TAFDFW
TAF AMD
KDFW 261528Z 2615/2718 29011KT P6SM SKC
     FM261800 34012KT P6SM SCT250
     FM270100 36006KT P6SM FEW250
     FM271600 07005KT P6SM FEW250=



000
FTUS44 KFWD 261100
TAFFTW
TAF
KFTW 261130Z 2612/2712 23010KT P6SM SKC
     FM261600 28010KT P6SM SKC
     FM261800 34011KT P6SM FEW250
     FM270100 36006KT P6SM FEW250=



000
FTUS44 KFWD 261100
TAFDFW
TAF
KDFW 261130Z 2612/2718 23010KT P6SM SKC
     FM261500 29011KT P6SM SKC
     FM261800 34012KT P6SM FEW250
     FM270100 36006KT P6SM FEW250
     FM271600 10005KT P6SM FEW250=



000
FTUS44 KFWD 261100
TAFACT
TAF
KACT 261130Z 2612/2712 20008KT P6SM SKC
     FM261700 30011KT P6SM FEW250
     FM262000 34011KT P6SM FEW250=



000
FTUS44 KFWD 260800 AAA
TAFDFW
TAF AMD
KDFW 260859Z 2609/2712 21008KT P6SM FEW250
     FM261500 30011KT P6SM SCT250=



000
FTUS44 KFWD 260800 AAA
TAFACT
TAF AMD
KACT 260859Z 2609/2706 20008KT P6SM SKC
     FM261700 30011KT P6SM SCT250=



000
FTUS44 KFWD 260800 AAA
TAFFTW
TAF AMD
KFTW 260859Z 2609/2706 21008KT P6SM FEW250
     FM261500 30011KT P6SM SCT250=



000
FTUS44 KFWD 260500
TAFFTW
TAF
KFTW 260520Z 2606/2706 21010KT P6SM BKN250
     FM261500 30011KT P6SM SCT250=



000
FTUS44 KFWD 260500
TAFACT
TAF
KACT 260520Z 2606/2706 20007KT P6SM SCT250
     FM261700 30011KT P6SM SCT250=



000
FTUS44 KFWD 260500
TAFDFW
TAF
KDFW 260520Z 2606/2712 21010KT P6SM BKN250
     FM261500 30011KT P6SM SCT250=



000
FTUS44 KFWD 260300 AAA
TAFDFW
TAF AMD
KDFW 260301Z 2603/2706 21010KT P6SM BKN250
     FM261500 30011KT P6SM SCT250=



000
FTUS44 KFWD 260300 AAA
TAFACT
TAF AMD
KACT 260301Z 2603/2624 20007KT P6SM SCT250
     FM261700 30011KT P6SM SCT250=



000
FTUS44 KFWD 260300 AAA
TAFFTW
TAF AMD
KFTW 260301Z 2603/2624 21010KT P6SM BKN250
     FM261500 30011KT P6SM SCT250=



000
FTUS44 KFWD 252300
TAFFTW
TAF
KFTW 252320Z 2600/2624 27008KT P6SM SKC
     FM260200 21010KT P6SM BKN250
     FM261500 30011KT P6SM SCT250=



000
FTUS44 KFWD 252300
TAFACT
TAF
KACT 252320Z 2600/2624 20007KT P6SM BKN250
     FM261700 29011KT P6SM SCT250=



000
FTUS44 KFWD 252300
TAFDFW
TAF
KDFW 252320Z 2600/2706 27008KT P6SM SKC
     FM260200 21010KT P6SM BKN250
     FM261500 30011KT P6SM SCT250=



000
FTUS44 KFWD 252000 AAA
TAFFTW
TAF AMD
KFTW 252046Z 2521/2618 27008KT P6SM FEW060 SCT250
     FM260200 21010KT P6SM BKN250
     FM261500 30012KT P6SM SCT250=



000
FTUS44 KFWD 252000 AAA
TAFDFW
TAF AMD
KDFW 252046Z 2521/2624 27008KT P6SM FEW060 SCT250
     FM260200 21010KT P6SM BKN250
     FM261500 30012KT P6SM SCT250=



000
FTUS44 KFWD 252000 AAA
TAFACT
TAF AMD
KACT 252046Z 2521/2618 25012KT P6SM FEW060 SCT250
     FM260200 20007KT P6SM BKN250
     FM261700 29012KT P6SM SCT250=



000
FTUS44 KFWD 251700
TAFACT
TAF
KACT 251720Z 2518/2618 29008KT P6SM SCT250
     FM260200 20007KT P6SM BKN250
     FM261700 29012KT P6SM SCT250=



000
FTUS44 KFWD 251700
TAFFTW
TAF
KFTW 251720Z 2518/2618 27008KT P6SM SCT250
     FM260200 21010KT P6SM BKN250
     FM261500 30012KT P6SM SCT250=



000
FTUS44 KFWD 251700
TAFDFW
TAF
KDFW 251720Z 2518/2624 27008KT P6SM SCT250
     FM260200 21010KT P6SM BKN250
     FM261500 30012KT P6SM SCT250=



000
FTUS44 KFWD 251500 AAA
TAFACT
TAF AMD
KACT 251501Z 2515/2612 VRB03KT P6SM FEW250
     FM251900 27008KT P6SM SCT250
     FM260200 20007KT P6SM BKN250=



000
FTUS44 KFWD 251500 AAA
TAFDFW
TAF AMD
KDFW 251501Z 2515/2618 27003KT P6SM SKC
     FM251800 27008KT P6SM SCT250
     FM260100 20010KT P6SM BKN250
     FM261500 28012KT P6SM SCT250=



000
FTUS44 KFWD 251500 AAA
TAFFTW
TAF AMD
KFTW 251501Z 2515/2612 27003KT P6SM SKC
     FM251800 27008KT P6SM SCT250
     FM260100 20007KT P6SM BKN250=



000
FTUS44 KFWD 251100
TAFFTW
TAF
KFTW 251121Z 2512/2612 27003KT P6SM SKC
     FM251800 27008KT P6SM SCT250
     FM260100 20007KT P6SM BKN250=



000
FTUS44 KFWD 251100
TAFDFW
TAF
KDFW 251121Z 2512/2618 27003KT P6SM SKC
     FM251800 27008KT P6SM SCT250
     FM260100 20010KT P6SM BKN250
     FM261500 28012KT P6SM SCT250=



000
FTUS44 KFWD 251100
TAFACT
TAF
KACT 251121Z 2512/2612 VRB03KT P6SM FEW250
     FM251900 27008KT P6SM SCT250
     FM260200 20007KT P6SM BKN250=



000
FTUS44 KFWD 250900 AAA
TAFDFW
TAF AMD
KDFW 250902Z 2509/2612 27003KT P6SM SCT250
     FM251900 27008KT P6SM SCT250
     FM260200 20010KT P6SM BKN250=



000
FTUS44 KFWD 250900 AAA
TAFACT
TAF AMD
KACT 250902Z 2509/2606 VRB03KT P6SM SCT150 BKN250
     FM251500 27008KT P6SM SCT250
     FM260200 20007KT P6SM BKN250=



000
FTUS44 KFWD 250900 AAA
TAFFTW
TAF AMD
KFTW 250902Z 2509/2606 27003KT P6SM SCT250
     FM251900 27008KT P6SM SCT250
     FM260200 20007KT P6SM BKN250=



000
FTUS44 KFWD 250500
TAFFTW
TAF
KFTW 250520Z 2506/2606 27003KT P6SM SCT250
     FM251000 32005KT P6SM SCT150 BKN250
     FM251900 27008KT P6SM SCT250
     FM260200 20007KT P6SM BKN250=



000
FTUS44 KFWD 250500
TAFACT
TAF
KACT 250520Z 2506/2606 VRB03KT P6SM SCT150 BKN250
     FM251500 27008KT P6SM SCT250
     FM260200 20007KT P6SM BKN250=



000
FTUS44 KFWD 250500
TAFDFW
TAF
KDFW 250520Z 2506/2612 27003KT P6SM SCT250
     FM251000 32005KT P6SM SCT150 BKN250
     FM251900 27008KT P6SM SCT250
     FM260200 20010KT P6SM BKN250=



000
FTUS44 KFWD 250300 AAA
TAFDFW
TAF AMD
KDFW 250300Z 2503/2606 27003KT P6SM SCT150 BKN250
     FM251000 33005KT P6SM SCT150 BKN250
     FM252100 24008KT P6SM SCT250=



000
FTUS44 KFWD 250300 AAA
TAFFTW
TAF AMD
KFTW 250300Z 2503/2524 27003KT P6SM SCT150 BKN250
     FM251000 33005KT P6SM SCT150 BKN250
     FM252100 24008KT P6SM SCT250=



000
FTUS44 KFWD 250300 AAA
TAFACT
TAF AMD
KACT 250300Z 2503/2524 VRB03KT P6SM SCT150 BKN250
     FM251500 27005KT P6SM SCT250=



000
FTUS44 KFWD 242300
TAFACT
TAF
KACT 242320Z 2500/2524 VRB03KT P6SM SCT150 BKN250
     FM251500 27005KT P6SM SCT250=



000
FTUS44 KFWD 242300
TAFFTW
TAF
KFTW 242320Z 2500/2524 27003KT P6SM SCT150 BKN250
     FM251000 33005KT P6SM SCT150 BKN250
     FM252100 24008KT P6SM SCT250=



000
FTUS44 KFWD 242300
TAFDFW
TAF
KDFW 242320Z 2500/2606 27003KT P6SM SCT150 BKN250
     FM251000 33005KT P6SM SCT150 BKN250
     FM252100 24008KT P6SM SCT250=



000
FTUS44 KFWD 242100 AAA
TAFFTW
TAF AMD
KFTW 242101Z 2421/2518 28007KT P6SM BKN250
     FM251100 34005KT P6SM BKN120=



000
FTUS44 KFWD 242100 AAA
TAFACT
TAF AMD
KACT 242101Z 2421/2518 35006KT P6SM SCT250
     FM250000 26005KT P6SM SCT250=



000
FTUS44 KFWD 242100 AAA
TAFDFW
TAF AMD
KDFW 242101Z 2421/2524 27005KT P6SM BKN250
     FM251100 34005KT P6SM BKN120
     FM252100 24008KT P6SM SCT250=



    US Dept of Commerce
    National Oceanic and Atmospheric Administration
    National Weather Service
    1325 East West Highway
    Silver Spring, MD 20910
    Page Author: NWS Internet Services Team
Disclaimer
Information Quality
Credits
Glossary
Privacy Policy
Freedom of Information Act (FOIA)
About Us
Career Opportunities